Time;durP1;ratioP1;P1;durP2;ratioP2;P2;SDS_P1;SDS_P2;PMS_P1;PMS_P2;Temp;Humidity;BMP_temperature;BMP_pressure;BME280_temperature;BME280_humidity;BME280_pressure;Samples;Min_cycle;Max_cycle;Signal;HPM_P1;HPM_P2
2022/12/05 00:01:13;;;;;;;21.80;19.10;;;;;;;2.65;100.00;96697.19;5029522;28;20611;-71
2022/12/05 00:03:42;;;;;;;23.30;19.63;;;;;;;2.62;100.00;96695.66;5021655;28;20655;-71
2022/12/05 00:06:10;;;;;;;25.93;21.03;;;;;;;2.65;100.00;96713.72;4977881;28;20329;-69
2022/12/05 00:08:38;;;;;;;22.57;19.23;;;;;;;2.63;100.00;96713.00;5024242;28;20418;-71
2022/12/05 00:11:11;;;;;;;25.50;19.47;;;;;;;2.64;100.00;96719.88;5031447;28;20211;-70
2022/12/05 00:13:39;;;;;;;22.80;19.73;;;;;;;2.71;100.00;96714.91;5028727;28;20572;-70
2022/12/05 00:16:09;;;;;;;20.90;18.60;;;;;;;2.64;100.00;96716.47;5028286;28;20497;-72
2022/12/05 00:18:36;;;;;;;21.60;18.77;;;;;;;2.61;100.00;96720.19;5024778;28;20982;-71
2022/12/05 00:21:06;;;;;;;23.03;19.77;;;;;;;2.56;100.00;96725.88;5030368;28;20200;-71
2022/12/05 00:23:34;;;;;;;22.13;19.47;;;;;;;2.66;100.00;96735.44;4979495;28;21150;-69
2022/12/05 00:26:03;;;;;;;24.97;20.43;;;;;;;2.56;100.00;96731.09;5026921;28;20231;-70
2022/12/05 00:28:30;;;;;;;23.50;18.83;;;;;;;2.68;100.00;96728.28;5026991;28;20251;-69
2022/12/05 00:31:00;;;;;;;22.10;19.73;;;;;;;2.65;100.00;96725.97;5022040;28;20209;-71
2022/12/05 00:33:28;;;;;;;25.93;21.33;;;;;;;2.72;100.00;96733.09;5001167;28;20434;-70
2022/12/05 00:35:56;;;;;;;26.00;22.00;;;;;;;2.71;100.00;96733.22;5035631;28;20262;-69
2022/12/05 00:38:24;;;;;;;22.47;19.57;;;;;;;2.72;100.00;96740.94;4974576;28;20216;-67
2022/12/05 00:40:52;;;;;;;22.43;20.03;;;;;;;2.74;100.00;96739.00;5033154;28;20196;-69
2022/12/05 00:43:20;;;;;;;23.17;19.30;;;;;;;2.72;100.00;96747.94;5027041;28;20527;-69
2022/12/05 00:45:47;;;;;;;21.77;19.40;;;;;;;2.76;100.00;96749.31;5021817;28;20239;-70
2022/12/05 00:48:15;;;;;;;20.80;18.60;;;;;;;2.79;100.00;96751.63;5029513;28;20203;-67
2022/12/05 00:50:43;;;;;;;22.07;19.70;;;;;;;2.72;100.00;96740.09;5028149;28;20240;-70
2022/12/05 00:53:10;;;;;;;24.00;19.77;;;;;;;2.76;100.00;96749.31;4980870;28;20211;-68
2022/12/05 00:55:39;;;;;;;21.30;18.97;;;;;;;2.72;100.00;96742.72;5021131;28;20235;-69
2022/12/05 00:58:07;;;;;;;21.97;19.30;;;;;;;2.72;100.00;96750.56;4994256;28;20291;-67
2022/12/05 01:00:34;;;;;;;22.63;18.93;;;;;;;2.67;100.00;96755.41;5026146;28;20517;-70
2022/12/05 01:03:02;;;;;;;22.23;19.77;;;;;;;2.58;100.00;96757.09;5024386;28;20211;-69
2022/12/05 01:05:30;;;;;;;24.33;21.73;;;;;;;2.64;100.00;96753.09;5023429;28;20851;-71
2022/12/05 01:07:57;;;;;;;23.43;19.03;;;;;;;2.71;100.00;96748.91;5030872;28;20214;-69
2022/12/05 01:10:25;;;;;;;26.63;21.83;;;;;;;2.79;100.00;96754.25;4973970;28;20212;-70
2022/12/05 01:12:54;;;;;;;24.53;21.40;;;;;;;2.84;100.00;96759.88;5027987;28;20204;-71
2022/12/05 01:15:22;;;;;;;27.47;21.20;;;;;;;2.67;100.00;96751.03;5028466;28;20638;-69
2022/12/05 01:17:49;;;;;;;24.17;19.43;;;;;;;2.55;100.00;96758.22;5024428;28;20754;-71
2022/12/05 01:20:17;;;;;;;24.93;19.97;;;;;;;2.63;100.00;96760.09;5035009;28;20216;-70
2022/12/05 01:22:45;;;;;;;28.03;21.17;;;;;;;2.63;100.00;96762.72;5029989;28;20600;-71
2022/12/05 01:25:12;;;;;;;26.33;21.97;;;;;;;2.65;100.00;96770.44;4990835;28;20234;-69
2022/12/05 01:27:40;;;;;;;26.40;21.43;;;;;;;2.55;100.00;96773.91;5032048;28;20324;-70
2022/12/05 01:30:10;;;;;;;27.93;23.43;;;;;;;2.50;100.00;96757.00;5035873;28;20214;-70
2022/12/05 01:32:38;;;;;;;28.53;21.40;;;;;;;2.57;100.00;96764.13;5024803;28;20321;-71
2022/12/05 01:35:06;;;;;;;26.27;22.27;;;;;;;2.58;100.00;96775.41;5036984;28;20204;-70
2022/12/05 01:37:34;;;;;;;28.93;21.60;;;;;;;2.48;100.00;96775.47;5020575;28;20259;-67
2022/12/05 01:40:03;;;;;;;34.33;25.03;;;;;;;2.45;100.00;96787.00;4985153;28;20591;-69
2022/12/05 01:42:31;;;;;;;28.20;23.07;;;;;;;2.44;100.00;96800.22;5025976;28;20246;-71
2022/12/05 01:45:02;;;;;;;30.23;24.47;;;;;;;2.40;100.00;96801.47;5026627;28;20214;-71
2022/12/05 01:47:33;;;;;;;36.40;26.60;;;;;;;2.37;100.00;96801.75;5023777;28;20351;-71
2022/12/05 01:50:01;;;;;;;35.07;25.63;;;;;;;2.34;100.00;96808.13;5030433;28;20420;-71
2022/12/05 01:52:30;;;;;;;44.30;27.03;;;;;;;2.36;100.00;96813.19;5022425;28;20298;-69
2022/12/05 01:55:03;;;;;;;50.10;26.20;;;;;;;2.23;100.00;96818.72;4981961;28;20208;-71
2022/12/05 01:57:31;;;;;;;49.20;24.83;;;;;;;2.11;100.00;96823.28;5025075;28;20206;-68
2022/12/05 02:00:02;;;;;;;48.20;25.73;;;;;;;2.12;100.00;96824.94;4969545;28;20502;-71
2022/12/05 02:02:32;;;;;;;48.80;24.93;;;;;;;2.10;100.00;96824.25;5024860;28;20203;-70
2022/12/05 02:05:04;;;;;;;52.83;25.23;;;;;;;2.08;100.00;96829.59;5024476;28;20211;-68
2022/12/05 02:07:32;;;;;;;49.47;24.03;;;;;;;2.06;100.00;96822.84;5027866;28;20224;-71
2022/12/05 02:10:00;;;;;;;44.07;25.30;;;;;;;2.00;100.00;96830.28;5025920;28;20210;-68
2022/12/05 02:12:28;;;;;;;40.77;23.07;;;;;;;2.08;100.00;96829.59;5030049;28;20745;-70
2022/12/05 02:15:06;;;;;;;45.90;23.50;;;;;;;2.01;100.00;96845.00;4974724;28;21304;-69
2022/12/05 02:17:44;;;;;;;40.10;23.13;;;;;;;1.99;100.00;96844.31;5018242;28;20578;-70
2022/12/05 02:20:41;;;;;;;46.70;24.77;;;;;;;1.96;100.00;96841.19;5024735;28;20199;-70
2022/12/05 02:23:25;;;;;;;43.80;22.20;;;;;;;1.94;100.00;96841.31;5022190;28;20429;-69
2022/12/05 02:26:06;;;;;;;45.53;24.53;;;;;;;1.91;100.00;96832.94;5024462;28;20226;-69
2022/12/05 02:28:46;;;;;;;39.23;21.30;;;;;;;1.90;100.00;96842.53;5024411;28;20312;-70
2022/12/05 02:31:17;;;;;;;38.47;22.80;;;;;;;1.83;100.00;96836.22;4996769;28;20282;-69
2022/12/05 02:33:48;;;;;;;43.57;21.77;;;;;;;1.90;100.00;96844.34;5025824;28;20203;-68
2022/12/05 02:36:18;;;;;;;39.07;21.93;;;;;;;1.88;100.00;96844.47;5024709;28;20380;-70
2022/12/05 02:38:50;;;;;;;36.43;21.07;;;;;;;1.87;100.00;96850.66;5025399;28;20367;-68
2022/12/05 02:41:21;;;;;;;31.67;19.60;;;;;;;1.82;100.00;96848.44;5028916;28;20336;-69
2022/12/05 02:43:52;;;;;;;30.07;19.10;;;;;;;1.83;100.00;96838.84;5007044;28;20204;-68
2022/12/05 02:46:24;;;;;;;29.00;18.93;;;;;;;1.86;100.00;96844.59;5010928;28;20340;-69
2022/12/05 02:48:54;;;;;;;30.80;19.23;;;;;;;1.83;100.00;96855.31;5026883;28;20581;-68
2022/12/05 02:51:24;;;;;;;33.33;19.53;;;;;;;1.81;100.00;96851.22;5024241;28;20203;-70
2022/12/05 02:53:51;;;;;;;36.97;19.33;;;;;;;1.79;100.00;96867.00;5021558;28;20207;-69
2022/12/05 02:56:19;;;;;;;28.90;19.37;;;;;;;1.81;100.00;96861.66;5026306;28;20753;-68
2022/12/05 02:58:52;;;;;;;29.87;19.17;;;;;;;1.73;100.00;96860.56;5011190;28;20215;-68
2022/12/05 03:01:23;;;;;;;31.53;18.67;;;;;;;1.77;100.00;96873.34;5011789;28;20291;-70
2022/12/05 03:03:51;;;;;;;31.03;19.50;;;;;;;1.75;100.00;96875.28;5027324;28;20774;-67
2022/12/05 03:06:21;;;;;;;29.63;19.13;;;;;;;1.76;100.00;96877.72;5016350;28;20312;-70
2022/12/05 03:08:52;;;;;;;27.87;18.43;;;;;;;1.77;100.00;96879.38;5023588;28;20214;-68
2022/12/05 03:11:20;;;;;;;30.83;18.93;;;;;;;1.80;100.00;96881.72;5027616;28;20214;-70
2022/12/05 03:13:50;;;;;;;24.80;17.73;;;;;;;1.78;100.00;96882.84;5009562;28;20642;-67
2022/12/05 03:16:20;;;;;;;24.30;16.43;;;;;;;1.82;100.00;96882.41;5007605;28;20575;-69
2022/12/05 03:18:54;;;;;;;25.60;17.93;;;;;;;1.85;100.00;96879.53;5023842;28;20203;-68
2022/12/05 03:21:27;;;;;;;23.43;17.33;;;;;;;1.85;100.00;96882.13;5025040;28;20203;-69
2022/12/05 03:23:56;;;;;;;25.50;17.87;;;;;;;1.86;100.00;96868.09;5022930;28;20203;-69
2022/12/05 03:26:37;;;;;;;24.13;17.93;;;;;;;1.82;100.00;96877.19;5024988;28;20938;-69
2022/12/05 03:29:18;;;;;;;21.53;16.43;;;;;;;1.83;100.00;96891.91;4998570;28;20904;-70
2022/12/05 03:31:50;;;;;;;20.57;16.97;;;;;;;1.80;100.00;96902.63;4979104;28;20654;-70
2022/12/05 03:34:22;;;;;;;24.13;17.23;;;;;;;1.79;100.00;96914.03;5024683;28;20222;-71
2022/12/05 03:36:52;;;;;;;20.93;17.37;;;;;;;1.78;100.00;96898.50;5000981;28;20408;-68
2022/12/05 03:39:24;;;;;;;21.50;16.30;;;;;;;1.79;100.00;96903.59;4993545;28;20582;-69
2022/12/05 03:41:57;;;;;;;20.57;14.93;;;;;;;1.77;100.00;96892.44;5021253;28;20199;-66
2022/12/05 03:44:31;;;;;;;19.30;14.97;;;;;;;1.74;100.00;96892.72;5036757;28;20230;-68
2022/12/05 03:47:01;;;;;;;19.07;14.37;;;;;;;1.78;100.00;96907.16;4986736;28;20357;-71
2022/12/05 03:49:35;;;;;;;20.42;16.08;;;;;;;1.79;100.00;96908.81;5037349;28;20424;-73
2022/12/05 03:52:09;;;;;;;19.37;15.90;;;;;;;1.76;100.00;96911.69;5034393;28;20521;-71
2022/12/05 03:54:40;;;;;;;15.80;13.63;;;;;;;1.77;100.00;96915.16;5009508;28;20836;-71
2022/12/05 03:57:11;;;;;;;16.40;13.13;;;;;;;1.80;100.00;96914.88;5039449;28;20309;-71
2022/12/05 03:59:42;;;;;;;16.63;13.10;;;;;;;1.79;100.00;96916.66;5040097;28;20207;-69
2022/12/05 04:02:13;;;;;;;15.47;13.03;;;;;;;1.76;100.00;96913.50;4990638;28;20486;-71
2022/12/05 04:04:48;;;;;;;17.63;14.07;;;;;;;1.77;100.00;96899.47;5034939;28;20204;-70
2022/12/05 04:07:17;;;;;;;14.93;12.90;;;;;;;1.82;100.00;96899.88;4960431;28;20454;-70
2022/12/05 04:09:47;;;;;;;15.50;12.77;;;;;;;1.73;100.00;96896.28;5025158;28;20205;-68
2022/12/05 04:12:19;;;;;;;17.20;12.13;;;;;;;1.82;100.00;96899.88;4991096;28;20442;-68
2022/12/05 04:14:48;;;;;;;13.57;11.53;;;;;;;1.78;100.00;96915.00;5009153;28;20514;-69
2022/12/05 04:17:19;;;;;;;13.63;12.17;;;;;;;1.80;100.00;96917.47;5028503;28;20222;-68
2022/12/05 04:22:38;;;;;;;13.10;11.73;;;;;;;1.76;100.00;96952.69;4966736;28;20664;-69
2022/12/05 04:27:58;;;;;;;13.90;12.27;;;;;;;1.76;100.00;96950.88;5004231;28;20232;-71
2022/12/05 04:30:30;;;;;;;11.43;10.33;;;;;;;1.78;100.00;96946.34;5025825;28;20200;-70
2022/12/05 04:33:01;;;;;;;13.50;11.33;;;;;;;1.81;100.00;96948.69;5031562;28;20204;-72
2022/12/05 04:35:35;;;;;;;15.33;12.20;;;;;;;1.75;100.00;96943.19;5032043;28;20231;-71
2022/12/05 04:38:05;;;;;;;13.97;12.53;;;;;;;1.75;100.00;96951.84;4977724;28;20238;-71
2022/12/05 04:40:37;;;;;;;14.30;12.00;;;;;;;1.68;100.00;96959.38;5028660;28;20839;-70
2022/12/05 04:43:05;;;;;;;14.23;12.07;;;;;;;1.73;100.00;96964.22;5003027;28;21400;-70
2022/12/05 04:45:33;;;;;;;14.90;12.53;;;;;;;1.71;100.00;96956.53;5027928;28;20223;-69
2022/12/05 04:48:02;;;;;;;14.50;11.13;;;;;;;1.71;100.00;96961.75;5030529;28;20307;-70
2022/12/05 04:50:33;;;;;;;12.93;11.60;;;;;;;1.69;100.00;96947.97;5020345;28;20274;-70
2022/12/05 04:53:02;;;;;;;13.17;11.77;;;;;;;1.72;100.00;96945.13;4978831;28;20211;-71
2022/12/05 04:55:31;;;;;;;12.50;10.87;;;;;;;1.75;100.00;96964.91;5021129;28;20228;-70
2022/12/05 04:58:04;;;;;;;13.03;11.53;;;;;;;1.77;100.00;96977.84;5005019;28;20199;-72
2022/12/05 05:00:34;;;;;;;12.33;11.13;;;;;;;1.75;100.00;96977.97;5024988;28;20642;-70
2022/12/05 05:03:07;;;;;;;13.20;10.70;;;;;;;1.69;100.00;96983.72;5030869;28;20226;-71
2022/12/05 05:05:37;;;;;;;11.73;10.53;;;;;;;1.65;100.00;96983.16;5020270;28;20460;-70
2022/12/05 05:08:05;;;;;;;12.70;11.37;;;;;;;1.64;100.00;96985.91;4974245;28;20220;-71
2022/12/05 05:10:35;;;;;;;12.73;10.67;;;;;;;1.64;100.00;96984.09;5021877;28;20208;-70
2022/12/05 05:13:03;;;;;;;11.60;10.37;;;;;;;1.64;100.00;96993.75;5023338;28;20214;-70
2022/12/05 05:15:30;;;;;;;12.23;11.07;;;;;;;1.65;100.00;97003.22;5003415;28;20249;-69
2022/12/05 05:17:58;;;;;;;12.43;11.23;;;;;;;1.61;100.00;97005.28;5027961;28;20412;-69
2022/12/05 05:20:26;;;;;;;13.13;11.17;;;;;;;1.61;100.00;97002.66;5024486;28;20215;-68
2022/12/05 05:22:56;;;;;;;12.07;10.87;;;;;;;1.58;100.00;97006.38;5024756;28;20206;-69
2022/12/05 05:25:24;;;;;;;12.17;10.90;;;;;;;1.59;100.00;96997.59;4957444;28;20632;-69
2022/12/05 05:27:54;;;;;;;10.60;9.53;;;;;;;1.64;100.00;96993.75;5028573;28;20223;-71
2022/12/05 05:30:23;;;;;;;11.17;9.97;;;;;;;1.63;100.00;96998.13;5004341;28;20219;-70
2022/12/05 05:32:50;;;;;;;10.57;9.53;;;;;;;1.56;100.00;96991.78;5000725;28;20208;-68
2022/12/05 05:35:19;;;;;;;11.70;9.37;;;;;;;1.59;100.00;96999.34;5003737;28;20235;-68
2022/12/05 05:37:46;;;;;;;11.50;10.47;;;;;;;1.57;100.00;96988.22;5024060;28;20217;-70
2022/12/05 05:40:15;;;;;;;11.53;9.97;;;;;;;1.65;100.00;96985.75;4994110;28;20212;-69
2022/12/05 05:42:44;;;;;;;11.50;9.93;;;;;;;1.65;100.00;96988.38;5025612;28;20789;-70
2022/12/05 05:45:12;;;;;;;11.80;10.67;;;;;;;1.63;100.00;96994.69;5002237;28;20215;-69
2022/12/05 05:47:40;;;;;;;12.20;10.73;;;;;;;1.63;100.00;97005.16;5034589;28;20206;-68
2022/12/05 05:50:09;;;;;;;12.50;10.63;;;;;;;1.62;100.00;97003.50;5025561;28;20203;-69
2022/12/05 05:52:38;;;;;;;11.30;10.10;;;;;;;1.60;100.00;96998.38;5003786;28;20207;-69
2022/12/05 05:55:07;;;;;;;11.77;10.57;;;;;;;1.58;100.00;97010.75;5032824;28;20214;-69
2022/12/05 05:57:37;;;;;;;11.30;10.07;;;;;;;1.64;100.00;97018.06;4984618;28;20220;-71
2022/12/05 06:00:06;;;;;;;12.20;10.87;;;;;;;1.69;100.00;97008.03;5028609;28;21056;-70
2022/12/05 06:02:34;;;;;;;12.17;9.97;;;;;;;1.69;100.00;97002.81;4969506;28;20773;-71
2022/12/05 06:05:03;;;;;;;11.70;10.17;;;;;;;1.65;100.00;97014.50;5027497;28;20199;-72
2022/12/05 06:07:31;;;;;;;12.57;10.73;;;;;;;1.66;100.00;97018.75;5024052;28;20207;-71
2022/12/05 06:09:58;;;;;;;12.13;10.60;;;;;;;1.64;100.00;97019.88;5030620;28;20230;-71
2022/12/05 06:12:27;;;;;;;12.53;10.87;;;;;;;1.65;100.00;97011.06;4971725;28;20545;-70
2022/12/05 06:14:56;;;;;;;11.97;10.57;;;;;;;1.58;100.00;97005.53;4968624;28;20227;-69
2022/12/05 06:17:23;;;;;;;12.03;10.83;;;;;;;1.67;100.00;97016.97;5024717;28;20210;-71
2022/12/05 06:19:51;;;;;;;12.53;11.43;;;;;;;1.66;100.00;97016.16;5026873;28;20204;-69
2022/12/05 06:22:18;;;;;;;13.73;12.37;;;;;;;1.68;100.00;97016.84;5022726;28;20247;-72
2022/12/05 06:24:46;;;;;;;13.43;10.40;;;;;;;1.78;100.00;97016.88;4998200;28;20218;-70
2022/12/05 06:27:14;;;;;;;13.53;11.50;;;;;;;1.85;100.00;97010.16;5030389;28;20227;-71
2022/12/05 06:29:41;;;;;;;12.73;11.63;;;;;;;1.81;100.00;97007.97;4995516;28;20937;-70
2022/12/05 06:32:10;;;;;;;15.03;11.00;;;;;;;1.86;100.00;97017.03;5026341;28;20196;-71
2022/12/05 06:34:38;;;;;;;13.37;11.77;;;;;;;1.89;100.00;97023.78;5005246;28;20579;-71
2022/12/05 06:37:05;;;;;;;14.43;10.83;;;;;;;1.73;100.00;97026.91;5025958;28;20246;-71
2022/12/05 06:39:33;;;;;;;11.63;10.43;;;;;;;1.68;100.00;97027.28;5032625;28;20246;-71
2022/12/05 06:42:01;;;;;;;13.63;11.27;;;;;;;1.73;100.00;97030.34;5032109;28;20207;-71
2022/12/05 06:44:28;;;;;;;15.37;11.50;;;;;;;1.78;100.00;97035.16;4999581;28;20215;-72
2022/12/05 06:46:56;;;;;;;12.73;11.03;;;;;;;1.66;100.00;97044.88;5026698;28;20231;-69
2022/12/05 06:49:31;;;;;;;15.47;11.23;;;;;;;1.62;100.00;97043.47;5004724;28;20513;-71
2022/12/05 06:52:04;;;;;;;13.97;11.37;;;;;;;1.54;100.00;97056.38;5020516;28;20507;-71
2022/12/05 06:54:32;;;;;;;13.80;11.37;;;;;;;1.58;100.00;97047.31;5019463;28;20208;-70
2022/12/05 06:56:59;;;;;;;12.77;11.47;;;;;;;1.67;100.00;97048.31;5019309;28;20235;-70
2022/12/05 06:59:27;;;;;;;14.73;11.57;;;;;;;1.64;100.00;97044.19;4964296;28;20657;-70
2022/12/05 07:01:54;;;;;;;15.37;11.80;;;;;;;1.58;100.00;97050.78;5017018;28;20207;-69
2022/12/05 07:04:23;;;;;;;13.20;11.27;;;;;;;1.55;100.00;97053.66;5015170;28;20217;-70
2022/12/05 07:06:54;;;;;;;16.60;13.07;;;;;;;1.63;100.00;97060.81;5018530;28;20318;-72
2022/12/05 07:09:44;;;;;;;15.40;13.40;;;;;;;1.54;100.00;97052.00;4970883;28;20227;-69
2022/12/05 07:12:12;;;;;;;14.10;11.90;;;;;;;1.58;100.00;97068.22;5026246;28;20691;-68
2022/12/05 07:14:39;;;;;;;13.40;12.00;;;;;;;1.59;100.00;97059.41;5028941;28;20314;-70
2022/12/05 07:17:16;;;;;;;21.57;13.70;;;;;;;1.51;100.00;97077.53;4974981;28;20224;-68
2022/12/05 07:19:44;;;;;;;15.23;11.87;;;;;;;1.49;100.00;97079.44;5027589;28;20204;-70
2022/12/05 07:22:13;;;;;;;16.07;13.00;;;;;;;1.51;100.00;97090.59;4961425;28;20220;-68
2022/12/05 07:24:43;;;;;;;16.97;12.37;;;;;;;1.35;100.00;97097.09;5030523;28;20299;-69
2022/12/05 07:27:10;;;;;;;16.63;13.10;;;;;;;1.30;100.00;97099.25;5028555;28;20223;-71
2022/12/05 07:29:38;;;;;;;16.70;12.57;;;;;;;1.28;100.00;97103.75;5025516;28;20437;-70
2022/12/05 07:32:06;;;;;;;17.07;13.77;;;;;;;1.23;100.00;97114.59;4981517;28;20219;-73
2022/12/05 07:34:33;;;;;;;18.60;13.60;;;;;;;1.22;100.00;97117.31;5022388;28;21079;-71
2022/12/05 07:37:01;;;;;;;16.63;13.13;;;;;;;1.16;100.00;97110.84;4996426;28;20227;-69
2022/12/05 07:39:30;;;;;;;20.53;13.03;;;;;;;1.26;100.00;97098.69;5022910;28;20415;-69
2022/12/05 07:41:58;;;;;;;20.37;14.00;;;;;;;1.30;100.00;97107.06;4998540;28;20300;-69
2022/12/05 07:44:26;;;;;;;18.77;13.37;;;;;;;1.13;100.00;97117.13;5025266;28;20421;-71
2022/12/05 07:46:53;;;;;;;15.93;12.67;;;;;;;1.07;100.00;97125.47;4984189;28;20232;-70
2022/12/05 07:49:21;;;;;;;18.77;12.93;;;;;;;1.11;100.00;97133.88;5020482;28;20258;-69
2022/12/05 07:51:49;;;;;;;22.70;14.07;;;;;;;1.11;100.00;97142.53;4995516;28;20211;-70
2022/12/05 07:54:16;;;;;;;18.93;13.90;;;;;;;1.05;100.00;97147.41;5029484;28;22538;-69
2022/12/05 07:56:45;;;;;;;19.33;13.93;;;;;;;1.05;100.00;97148.25;5030182;28;20231;-70
2022/12/05 07:59:14;;;;;;;19.20;12.30;;;;;;;1.01;100.00;97149.47;5035819;28;20758;-68
2022/12/05 08:01:42;;;;;;;17.67;12.20;;;;;;;1.08;100.00;97148.00;4980182;28;20865;-70
2022/12/05 08:04:10;;;;;;;20.80;14.40;;;;;;;1.16;100.00;97160.44;5034179;28;20231;-69
2022/12/05 08:06:42;;;;;;;18.57;13.77;;;;;;;1.06;100.00;97156.91;4998232;28;20552;-71
2022/12/05 08:09:10;;;;;;;24.93;14.17;;;;;;;0.94;100.00;97158.72;5022326;28;20231;-70
2022/12/05 08:11:37;;;;;;;22.57;13.20;;;;;;;0.90;100.00;97165.13;5028716;28;20207;-70
2022/12/05 08:14:06;;;;;;;21.10;14.00;;;;;;;0.90;100.00;97171.19;5024876;28;20671;-70
2022/12/05 08:16:34;;;;;;;23.47;14.73;;;;;;;0.95;100.00;97173.44;5022506;28;20670;-69
2022/12/05 08:19:04;;;;;;;22.07;13.90;;;;;;;0.90;100.00;97183.41;4978026;28;20439;-68
2022/12/05 08:21:32;;;;;;;20.03;14.00;;;;;;;0.85;100.00;97184.59;4952643;28;20302;-69
2022/12/05 08:23:59;;;;;;;23.97;14.97;;;;;;;0.88;100.00;97193.13;5022285;28;20690;-69
2022/12/05 08:26:29;;;;;;;21.70;14.40;;;;;;;0.89;100.00;97190.41;5026599;28;20357;-69
2022/12/05 08:28:59;;;;;;;19.57;14.90;;;;;;;0.85;100.00;97187.22;4999797;28;20207;-69
2022/12/05 08:31:29;;;;;;;23.53;14.63;;;;;;;0.90;100.00;97197.28;5037023;28;20196;-70
2022/12/05 08:33:58;;;;;;;24.67;14.77;;;;;;;0.81;100.00;97192.81;5031617;28;20693;-69
2022/12/05 08:36:27;;;;;;;19.73;13.63;;;;;;;0.86;100.00;97195.88;4982235;28;20301;-72
2022/12/05 08:38:56;;;;;;;21.77;13.47;;;;;;;0.80;100.00;97186.75;5029608;28;20192;-70
2022/12/05 08:41:27;;;;;;;21.87;13.13;;;;;;;0.77;100.00;97197.44;5002544;28;20624;-71
2022/12/05 08:43:55;;;;;;;18.97;13.20;;;;;;;0.78;100.00;97193.06;5006139;28;20570;-69
2022/12/05 08:46:23;;;;;;;21.73;13.00;;;;;;;0.82;100.00;97191.88;5025007;28;20228;-69
2022/12/05 08:48:52;;;;;;;23.07;12.80;;;;;;;0.82;100.00;97197.06;5040127;28;20202;-69
2022/12/05 08:51:20;;;;;;;22.43;14.47;;;;;;;0.84;100.00;97193.38;4987437;28;21266;-70
2022/12/05 08:53:47;;;;;;;20.50;14.23;;;;;;;0.78;100.00;97203.50;5033772;28;20215;-72
2022/12/05 08:56:15;;;;;;;22.80;14.50;;;;;;;0.82;100.00;97199.69;5008786;28;20719;-71
2022/12/05 08:58:43;;;;;;;23.83;14.07;;;;;;;0.84;100.00;97197.78;5010240;28;20211;-71
2022/12/05 09:01:13;;;;;;;20.60;13.97;;;;;;;0.91;100.00;97203.31;5030289;28;20198;-70
2022/12/05 09:03:42;;;;;;;19.77;12.93;;;;;;;0.92;100.00;97203.22;5046504;28;20211;-70
2022/12/05 09:06:17;;;;;;;23.10;14.67;;;;;;;0.84;100.00;97210.81;4985978;28;20784;-70
2022/12/05 09:08:46;;;;;;;21.83;13.53;;;;;;;0.91;100.00;97206.78;5023619;28;20206;-68
2022/12/05 09:11:15;;;;;;;22.30;13.10;;;;;;;0.95;100.00;97204.75;5019695;28;20224;-69
2022/12/05 09:13:44;;;;;;;21.03;13.13;;;;;;;1.02;100.00;97216.34;5004990;28;20616;-69
2022/12/05 09:16:13;;;;;;;18.93;13.53;;;;;;;1.01;100.00;97214.69;4993133;28;20235;-70
2022/12/05 09:18:40;;;;;;;18.83;14.53;;;;;;;0.88;100.00;97220.06;5029706;28;20307;-70
2022/12/05 09:21:10;;;;;;;24.53;15.43;;;;;;;0.89;100.00;97219.13;5027274;28;20829;-70
2022/12/05 09:23:39;;;;;;;23.97;15.10;;;;;;;0.97;100.00;97219.31;4978708;28;20638;-69
2022/12/05 09:26:10;;;;;;;24.23;14.97;;;;;;;1.00;100.00;97220.88;5016254;28;20223;-70
2022/12/05 09:28:39;;;;;;;23.27;14.83;;;;;;;0.93;100.00;97210.09;4998912;28;20219;-69
2022/12/05 09:31:11;;;;;;;23.83;14.80;;;;;;;1.06;100.00;97212.53;5007179;28;21034;-71
2022/12/05 09:33:39;;;;;;;20.60;15.90;;;;;;;0.99;100.00;97219.22;5025078;28;20217;-70
2022/12/05 09:36:09;;;;;;;22.47;14.07;;;;;;;1.02;100.00;97211.13;5025941;28;20230;-70
2022/12/05 09:38:36;;;;;;;21.00;15.87;;;;;;;1.06;100.00;97215.16;4979118;28;20215;-70
2022/12/05 09:41:12;;;;;;;27.47;16.90;;;;;;;1.03;100.00;97220.63;5025274;28;20306;-69
2022/12/05 09:43:46;;;;;;;22.83;14.93;;;;;;;1.08;100.00;97218.47;4999946;28;20723;-70
2022/12/05 09:46:22;;;;;;;26.27;15.57;;;;;;;0.99;100.00;97203.56;4996578;28;20231;-70
2022/12/05 09:48:50;;;;;;;21.90;15.27;;;;;;;1.10;100.00;97200.91;5030941;28;20206;-69
2022/12/05 09:51:18;;;;;;;22.90;15.27;;;;;;;1.15;100.00;97201.34;5026155;28;20402;-71
2022/12/05 09:53:46;;;;;;;24.13;15.07;;;;;;;1.24;100.00;97198.94;4981307;28;20698;-70
2022/12/05 09:56:21;;;;;;;21.20;14.27;;;;;;;1.23;100.00;97200.75;5027632;28;20619;-71
2022/12/05 09:58:50;;;;;;;21.10;14.03;;;;;;;1.33;100.00;97207.81;4997662;28;20230;-69
2022/12/05 10:01:26;;;;;;;22.40;15.43;;;;;;;1.36;100.00;97197.97;4998739;28;20939;-71
2022/12/05 10:04:22;;;;;;;23.20;14.10;;;;;;;1.43;100.00;97195.66;5027815;28;20363;-69
2022/12/05 10:06:56;;;;;;;21.83;14.47;;;;;;;1.64;100.00;97189.63;5024646;28;20278;-69
2022/12/05 10:09:37;;;;;;;24.63;15.70;;;;;;;1.63;100.00;97196.63;4980413;28;20219;-69
2022/12/05 10:12:14;;;;;;;30.20;16.27;;;;;;;1.47;100.00;97194.44;5026157;28;20378;-69
2022/12/05 10:14:49;;;;;;;21.50;15.70;;;;;;;1.63;100.00;97190.59;5000076;28;20757;-68
2022/12/05 10:17:21;;;;;;;21.67;14.47;;;;;;;1.52;100.00;97186.25;4998920;28;20230;-70
2022/12/05 10:19:49;;;;;;;24.70;15.67;;;;;;;1.51;100.00;97187.22;5029127;28;20721;-68
2022/12/05 10:22:20;;;;;;;22.13;15.60;;;;;;;1.39;100.00;97183.81;5024262;28;20235;-70
2022/12/05 10:24:49;;;;;;;20.00;15.13;;;;;;;1.48;100.00;97190.06;4975642;28;20523;-70
2022/12/05 10:27:21;;;;;;;20.83;15.20;;;;;;;1.51;100.00;97187.22;5016159;28;20955;-70
2022/12/05 10:29:54;;;;;;;18.47;15.20;;;;;;;1.53;100.00;97188.75;5004374;28;20211;-71
2022/12/05 10:32:25;;;;;;;24.87;16.47;;;;;;;1.54;100.00;97192.16;5026834;28;20226;-70
2022/12/05 10:34:55;;;;;;;21.77;14.97;;;;;;;1.80;100.00;97186.56;5030356;28;20207;-73
2022/12/05 10:37:24;;;;;;;19.87;14.97;;;;;;;1.87;100.00;97183.28;5005867;28;20204;-69
2022/12/05 10:39:54;;;;;;;20.77;14.50;;;;;;;1.68;100.00;97181.41;5021002;28;20218;-70
2022/12/05 10:42:25;;;;;;;25.47;17.33;;;;;;;1.64;100.00;97176.56;5003743;28;20203;-69
2022/12/05 10:44:57;;;;;;;25.80;16.83;;;;;;;1.48;100.00;97180.44;5020790;28;20555;-71
2022/12/05 10:47:25;;;;;;;25.17;17.20;;;;;;;1.51;100.00;97184.59;5023765;28;20683;-68
2022/12/05 10:49:54;;;;;;;24.20;17.67;;;;;;;1.51;100.00;97180.19;5030977;28;20212;-70
2022/12/05 10:52:21;;;;;;;30.73;18.83;;;;;;;1.61;100.00;97185.47;5023002;28;20233;-68
2022/12/05 10:54:54;;;;;;;21.00;14.27;;;;;;;1.60;100.00;97183.81;5009243;28;20216;-70
2022/12/05 10:57:26;;;;;;;19.23;13.67;;;;;;;1.43;100.00;97186.06;5026385;28;20207;-69
2022/12/05 10:59:55;;;;;;;18.67;12.73;;;;;;;1.55;100.00;97186.00;5000249;28;20218;-69
2022/12/05 11:02:26;;;;;;;16.23;12.63;;;;;;;1.34;100.00;97189.44;5022945;28;21145;-70
2022/12/05 11:04:54;;;;;;;16.23;11.60;;;;;;;1.26;100.00;97187.44;5029986;28;20204;-66
2022/12/05 11:07:26;;;;;;;15.40;11.40;;;;;;;1.19;100.00;97185.44;5021639;28;20222;-70
2022/12/05 11:09:54;;;;;;;16.50;12.47;;;;;;;1.25;100.00;97184.94;5028949;28;20210;-71
2022/12/05 11:12:25;;;;;;;16.03;12.40;;;;;;;1.20;100.00;97180.13;5027839;28;20218;-70
2022/12/05 11:14:56;;;;;;;19.57;13.10;;;;;;;1.25;100.00;97183.19;5001717;28;20206;-72
2022/12/05 11:17:26;;;;;;;21.57;13.03;;;;;;;1.30;100.00;97188.84;5022414;28;20235;-71
2022/12/05 11:19:54;;;;;;;17.73;12.93;;;;;;;1.08;100.00;97181.94;5030301;28;20207;-70
2022/12/05 11:22:30;;;;;;;19.67;13.90;;;;;;;1.09;100.00;97188.81;5019541;28;20207;-69
2022/12/05 11:24:58;;;;;;;18.17;12.60;;;;;;;1.04;100.00;97182.28;5023226;28;20520;-70
2022/12/05 11:27:30;;;;;;;18.83;13.63;;;;;;;1.08;100.00;97184.53;4992480;28;20468;-71
2022/12/05 11:30:00;;;;;;;19.80;13.03;;;;;;;1.05;100.00;97184.78;5028335;28;20208;-70
2022/12/05 11:32:30;;;;;;;20.93;13.90;;;;;;;1.06;100.00;97180.38;4966115;28;20521;-71
2022/12/05 11:35:23;;;;;;;19.10;12.67;;;;;;;1.07;100.00;97184.66;5025491;28;20484;-70